createdAt,value
2022-10-17T00:00:02.322Z,25.90
2022-10-17T00:02:32.221Z,22.37
2022-10-17T00:04:59.825Z,23.08
2022-10-17T00:07:27.389Z,22.37
2022-10-17T00:09:54.822Z,21.40
2022-10-17T00:12:22.764Z,24.60
2022-10-17T00:14:50.291Z,22.98
2022-10-17T00:17:17.643Z,21.40
2022-10-17T00:19:45.292Z,25.27
2022-10-17T00:22:13.396Z,22.05
2022-10-17T00:24:40.795Z,18.48
2022-10-17T00:27:08.405Z,18.92
2022-10-17T00:29:36.019Z,17.95
2022-10-17T00:32:03.623Z,18.08
2022-10-17T00:34:31.225Z,15.60
2022-10-17T00:36:58.700Z,16.70
2022-10-17T00:39:26.084Z,17.73
2022-10-17T00:41:53.689Z,17.58
2022-10-17T00:44:30.327Z,17.40
2022-10-17T00:46:59.598Z,17.87
2022-10-17T00:49:29.922Z,15.13
2022-10-17T00:52:00.430Z,18.95
2022-10-17T00:54:33.727Z,16.17
2022-10-17T00:57:01.854Z,16.95
2022-10-17T00:59:30.328Z,16.85
2022-10-17T01:02:01.387Z,19.52
2022-10-17T01:04:29.009Z,15.18
2022-10-17T01:06:56.372Z,17.35
2022-10-17T01:09:24.424Z,20.80
2022-10-17T01:12:24.472Z,18.92
2022-10-17T01:15:13.941Z,21.27
2022-10-17T01:18:36.112Z,21.20
2022-10-17T01:21:09.852Z,21.60
2022-10-17T01:23:49.444Z,16.40
2022-10-17T01:26:32.012Z,17.75
2022-10-17T01:29:21.343Z,18.20
2022-10-17T01:32:02.223Z,16.37
2022-10-17T01:34:51.675Z,16.55
2022-10-17T01:37:28.609Z,15.15
2022-10-17T01:40:05.597Z,16.65
2022-10-17T01:42:49.702Z,14.77
2022-10-17T01:45:31.961Z,15.70
2022-10-17T01:48:05.814Z,17.75
2022-10-17T01:50:36.478Z,13.23
2022-10-17T01:53:16.969Z,15.60
2022-10-17T01:55:46.401Z,14.15
2022-10-17T01:58:19.077Z,16.50
2022-10-17T02:00:47.409Z,16.05
2022-10-17T02:03:18.051Z,15.13
2022-10-17T02:05:46.028Z,16.75
2022-10-17T02:08:13.611Z,16.20
2022-10-17T02:10:47.656Z,16.48
2022-10-17T02:13:57.534Z,16.27
2022-10-17T02:16:25.056Z,14.98
2022-10-17T02:19:24.729Z,18.77
2022-10-17T02:22:07.364Z,18.12
2022-10-17T02:24:51.107Z,17.85
2022-10-17T02:27:30.735Z,21.87
2022-10-17T02:30:21.412Z,19.73
2022-10-17T02:33:13.970Z,22.08
2022-10-17T02:35:44.734Z,24.30
2022-10-17T02:38:12.434Z,21.08
2022-10-17T02:40:40.628Z,19.90
2022-10-17T02:43:08.766Z,18.80
2022-10-17T02:45:37.512Z,18.87
2022-10-17T02:48:08.446Z,18.62
2022-10-17T02:50:43.672Z,16.15
2022-10-17T02:55:50.721Z,19.17
2022-10-17T02:58:25.319Z,17.48
2022-10-17T03:03:26.247Z,15.32
2022-10-17T03:05:54.142Z,19.65
2022-10-17T03:08:23.228Z,14.80
2022-10-17T03:10:50.839Z,14.80
2022-10-17T03:13:18.812Z,13.62
2022-10-17T03:15:46.641Z,18.77
2022-10-17T03:18:14.556Z,16.75
2022-10-17T03:20:42.171Z,16.58
2022-10-17T03:23:09.524Z,15.57
2022-10-17T03:25:36.932Z,15.15
2022-10-17T03:28:06.404Z,14.90
2022-10-17T03:30:34.313Z,14.85
2022-10-17T03:33:01.662Z,17.30
2022-10-17T03:35:29.331Z,13.48
2022-10-17T03:37:57.012Z,17.40
2022-10-17T03:40:24.854Z,18.52
2022-10-17T03:42:53.215Z,14.38
2022-10-17T03:45:20.715Z,16.20
2022-10-17T03:47:48.609Z,17.70
2022-10-17T03:50:16.254Z,14.20
2022-10-17T03:52:47.412Z,14.40
2022-10-17T03:55:15.149Z,13.90
2022-10-17T03:57:45.486Z,17.62
2022-10-17T04:00:13.663Z,16.60
2022-10-17T04:02:41.648Z,16.60
2022-10-17T04:05:09.795Z,18.62
2022-10-17T04:07:37.685Z,20.25
2022-10-17T04:10:05.763Z,15.82
2022-10-17T04:12:33.661Z,17.92
2022-10-17T04:15:01.085Z,13.60
2022-10-17T04:17:35.773Z,17.70
2022-10-17T04:20:06.818Z,14.15
2022-10-17T04:22:34.845Z,15.23
2022-10-17T04:25:02.270Z,14.43
2022-10-17T04:27:31.465Z,14.63
2022-10-17T04:29:58.820Z,15.98
2022-10-17T04:32:26.428Z,15.02
2022-10-17T04:34:54.580Z,15.45
2022-10-17T04:37:22.085Z,15.85
2022-10-17T04:39:50.123Z,18.95
2022-10-17T04:42:17.768Z,17.25
2022-10-17T04:44:45.763Z,18.12
2022-10-17T04:47:13.892Z,19.50
2022-10-17T04:49:42.593Z,19.45
2022-10-17T04:52:10.091Z,15.52
2022-10-17T04:54:37.528Z,19.10
2022-10-17T04:57:05.727Z,16.20
2022-10-17T04:59:33.246Z,22.27
2022-10-17T05:02:04.581Z,21.90
2022-10-17T05:04:33.772Z,22.13
2022-10-17T05:07:01.411Z,18.27
2022-10-17T05:09:30.064Z,17.05
2022-10-17T05:11:58.207Z,16.50
2022-10-17T05:14:25.840Z,15.95
2022-10-17T05:16:53.723Z,19.90
2022-10-17T05:19:21.406Z,23.73
2022-10-17T05:21:49.791Z,15.48
2022-10-17T05:24:17.179Z,17.45
2022-10-17T05:26:44.780Z,17.05
2022-10-17T05:29:12.822Z,16.58
2022-10-17T05:31:40.448Z,15.32
2022-10-17T05:34:10.337Z,17.85
2022-10-17T05:36:40.490Z,15.90
2022-10-17T05:39:08.943Z,14.98
2022-10-17T05:41:37.652Z,15.52
2022-10-17T05:44:05.847Z,18.83
2022-10-17T05:46:35.103Z,15.75
2022-10-17T05:49:10.639Z,22.08
2022-10-17T05:51:47.692Z,16.02
2022-10-17T05:54:15.313Z,21.55
2022-10-17T05:56:42.773Z,20.20
2022-10-17T05:59:10.417Z,17.27
2022-10-17T06:01:39.091Z,14.87
2022-10-17T06:04:06.971Z,21.45
2022-10-17T06:06:37.033Z,17.87
2022-10-17T06:09:05.473Z,19.15
2022-10-17T06:11:34.018Z,19.98
2022-10-17T06:14:01.674Z,16.02
2022-10-17T06:16:29.503Z,18.70
2022-10-17T06:18:57.124Z,14.93
2022-10-17T06:21:26.237Z,21.00
2022-10-17T06:23:54.249Z,18.77
2022-10-17T06:26:22.206Z,18.08
2022-10-17T06:28:49.698Z,17.00
2022-10-17T06:31:17.516Z,20.50
2022-10-17T06:33:45.627Z,17.33
2022-10-17T06:36:14.857Z,17.52
2022-10-17T06:38:43.260Z,20.00
2022-10-17T06:41:14.670Z,19.87
2022-10-17T06:43:45.656Z,21.27
2022-10-17T06:46:21.171Z,19.77
2022-10-17T06:48:50.944Z,23.38
2022-10-17T06:51:18.674Z,22.75
2022-10-17T06:53:47.261Z,23.58
2022-10-17T06:56:15.903Z,23.60
2022-10-17T06:58:44.183Z,24.65
2022-10-17T07:01:13.254Z,25.48
2022-10-17T07:03:41.308Z,24.35
2022-10-17T07:06:11.283Z,23.23
2022-10-17T07:08:43.549Z,22.58
2022-10-17T07:11:12.226Z,26.90
2022-10-17T07:13:40.483Z,28.17
2022-10-17T07:16:08.235Z,22.77
2022-10-17T07:18:36.658Z,28.95
2022-10-17T07:21:04.177Z,26.12
2022-10-17T07:23:32.051Z,24.23
2022-10-17T07:26:08.975Z,22.48
2022-10-17T07:28:40.160Z,23.58
2022-10-17T07:31:17.112Z,23.75
2022-10-17T07:36:18.285Z,20.27
2022-10-17T07:38:45.755Z,21.12
2022-10-17T07:41:17.799Z,22.20
2022-10-17T07:43:49.346Z,21.08
2022-10-17T07:46:17.586Z,21.20
2022-10-17T07:48:45.303Z,23.02
2022-10-17T07:51:13.005Z,21.95
2022-10-17T07:53:42.734Z,20.58
2022-10-17T07:56:13.006Z,24.85
2022-10-17T07:58:40.424Z,25.00
2022-10-17T08:01:14.806Z,19.33
2022-10-17T08:03:44.798Z,22.55
2022-10-17T08:06:12.694Z,19.67
2022-10-17T08:08:40.694Z,23.92
2022-10-17T08:11:11.103Z,18.85
2022-10-17T08:13:39.034Z,16.17
2022-10-17T08:16:09.016Z,17.37
2022-10-17T08:18:37.054Z,18.37
2022-10-17T08:21:08.599Z,18.40
2022-10-17T08:23:37.009Z,19.45
2022-10-17T08:26:08.152Z,18.25
2022-10-17T08:28:36.575Z,20.23
2022-10-17T08:31:12.222Z,19.87
2022-10-17T08:33:40.568Z,20.90
2022-10-17T08:36:09.348Z,18.55
2022-10-17T08:38:38.490Z,21.80
2022-10-17T08:41:49.803Z,19.05
2022-10-17T08:44:46.438Z,16.67
2022-10-17T08:47:24.632Z,16.15
2022-10-17T08:49:55.752Z,20.10
2022-10-17T08:52:38.016Z,20.33
2022-10-17T08:55:15.240Z,18.00
2022-10-17T08:57:43.425Z,20.02
2022-10-17T09:00:21.451Z,17.20
2022-10-17T09:02:58.156Z,18.65
2022-10-17T09:05:55.405Z,18.67
2022-10-17T09:09:03.845Z,19.45
2022-10-17T09:11:33.981Z,17.05
2022-10-17T09:14:26.590Z,16.02
2022-10-17T09:17:08.429Z,16.50
2022-10-17T09:19:39.349Z,18.02
2022-10-17T09:22:13.389Z,17.67
2022-10-17T09:24:48.528Z,19.55
2022-10-17T09:29:55.116Z,15.55
2022-10-17T09:32:24.858Z,17.92
2022-10-17T09:34:53.566Z,14.20
2022-10-17T09:37:26.327Z,14.75
2022-10-17T09:39:53.987Z,13.60
2022-10-17T09:42:24.007Z,18.08
2022-10-17T09:44:57.925Z,14.18
2022-10-17T09:47:41.390Z,13.10
2022-10-17T09:50:21.922Z,13.18
2022-10-17T09:52:50.776Z,10.82
2022-10-17T09:55:22.555Z,12.45
2022-10-17T09:57:58.239Z,15.02
2022-10-17T10:00:27.042Z,13.98
2022-10-17T10:03:15.289Z,10.90
2022-10-17T10:05:58.322Z,8.63
2022-10-17T10:08:35.804Z,12.57
2022-10-17T10:11:13.423Z,13.10
2022-10-17T10:13:42.812Z,9.63
2022-10-17T10:16:20.886Z,13.20
2022-10-17T10:18:50.927Z,11.10
2022-10-17T10:21:27.322Z,10.40
2022-10-17T10:24:10.568Z,9.50
2022-10-17T10:26:44.366Z,11.45
2022-10-17T10:29:25.199Z,10.00
2022-10-17T10:31:53.432Z,8.23
2022-10-17T10:34:26.877Z,10.57
2022-10-17T10:37:05.886Z,8.27
2022-10-17T10:39:37.439Z,11.05
2022-10-17T10:42:07.801Z,10.13
2022-10-17T10:44:36.517Z,10.07
2022-10-17T10:47:20.001Z,8.25
2022-10-17T10:49:47.771Z,9.45
2022-10-17T10:52:45.669Z,9.88
2022-10-17T10:55:27.305Z,10.93
2022-10-17T10:57:58.666Z,13.73
2022-10-17T11:00:28.261Z,10.93
2022-10-17T11:03:01.215Z,11.27
2022-10-17T11:05:51.673Z,8.15
2022-10-17T11:08:43.462Z,11.98
2022-10-17T11:11:29.572Z,9.60
2022-10-17T11:14:19.887Z,14.75
2022-10-17T11:17:02.621Z,12.30
2022-10-17T11:19:47.440Z,7.57
2022-10-17T11:22:29.263Z,10.13
2022-10-17T11:25:12.214Z,10.77
2022-10-17T11:27:39.856Z,7.18
2022-10-17T11:30:09.483Z,11.27
2022-10-17T11:32:41.837Z,8.38
2022-10-17T11:35:27.445Z,9.18
2022-10-17T11:38:12.977Z,8.57
2022-10-17T11:40:43.333Z,8.93
2022-10-17T11:43:19.869Z,14.32
2022-10-17T11:45:52.833Z,10.13
2022-10-17T11:48:34.970Z,7.57
2022-10-17T11:54:23.434Z,10.93
2022-10-17T11:57:13.861Z,13.18
2022-10-17T11:59:47.886Z,8.77
2022-10-17T12:02:23.938Z,8.30
2022-10-17T12:04:54.848Z,8.90
2022-10-17T12:07:46.703Z,8.25
2022-10-17T12:10:47.587Z,8.70
2022-10-17T12:13:38.282Z,7.62
2022-10-17T12:16:21.263Z,10.90
2022-10-17T12:18:51.376Z,9.75
2022-10-17T12:21:19.066Z,7.75
2022-10-17T12:23:53.830Z,7.30
2022-10-17T12:26:28.966Z,7.82
2022-10-17T12:28:57.168Z,7.30
2022-10-17T12:31:32.528Z,8.55
2022-10-17T12:34:02.742Z,8.73
2022-10-17T12:36:30.214Z,7.45
2022-10-17T12:39:03.703Z,9.68
2022-10-17T12:41:40.725Z,8.05
2022-10-17T12:44:14.385Z,5.95
2022-10-17T12:46:45.840Z,9.10
2022-10-17T12:49:39.118Z,9.40
2022-10-17T12:52:45.100Z,7.47
2022-10-17T12:58:01.690Z,10.55
2022-10-17T13:00:43.833Z,7.12
2022-10-17T13:03:22.137Z,11.12
2022-10-17T13:05:53.136Z,7.87
2022-10-17T13:08:33.103Z,9.45
2022-10-17T13:11:01.270Z,8.73
2022-10-17T13:13:38.352Z,8.38
2022-10-17T13:16:05.877Z,8.38
2022-10-17T13:18:34.358Z,7.03
2022-10-17T13:21:03.520Z,8.82
2022-10-17T13:23:33.801Z,8.60
2022-10-17T13:26:16.564Z,9.32
2022-10-17T13:28:44.382Z,6.47
2022-10-17T13:31:31.881Z,9.65
2022-10-17T13:34:01.729Z,6.40
2022-10-17T13:36:30.581Z,7.90
2022-10-17T13:39:00.021Z,8.98
2022-10-17T13:41:37.173Z,6.47
2022-10-17T13:44:14.378Z,6.85
2022-10-17T13:46:43.132Z,8.43
2022-10-17T13:49:23.317Z,5.90
2022-10-17T13:51:54.595Z,6.62
2022-10-17T13:54:42.914Z,7.10
2022-10-17T13:57:30.582Z,7.47
2022-10-17T14:00:10.061Z,6.15
2022-10-17T14:02:41.063Z,8.57
2022-10-17T14:05:17.218Z,7.25
2022-10-17T14:10:42.906Z,11.57
2022-10-17T14:13:24.253Z,11.18
2022-10-17T14:15:54.057Z,8.35
2022-10-17T14:18:25.278Z,7.30
2022-10-17T14:23:43.747Z,8.93
2022-10-17T14:26:22.681Z,7.18
2022-10-17T14:29:14.538Z,6.87
2022-10-17T14:31:42.176Z,8.73
2022-10-17T14:34:21.003Z,8.38
2022-10-17T14:36:51.669Z,8.73
2022-10-17T14:39:22.464Z,7.87
2022-10-17T14:41:51.314Z,6.57
2022-10-17T14:44:30.542Z,7.45
2022-10-17T14:47:30.228Z,11.50
2022-10-17T14:49:52.208Z,8.15
2022-10-17T14:52:19.725Z,7.15
2022-10-17T14:54:48.331Z,7.95
2022-10-17T14:57:38.807Z,8.98
2022-10-17T15:00:06.805Z,8.30
2022-10-17T15:02:34.559Z,13.48
2022-10-17T15:05:02.032Z,7.25
2022-10-17T15:07:29.823Z,8.68
2022-10-17T15:09:57.203Z,7.28
2022-10-17T15:12:25.677Z,7.37
2022-10-17T15:14:54.131Z,10.45
2022-10-17T15:17:26.321Z,9.32
2022-10-17T15:19:54.057Z,7.40
2022-10-17T15:22:21.914Z,10.23
2022-10-17T15:24:49.620Z,9.32
2022-10-17T15:27:22.759Z,11.07
2022-10-17T15:29:51.516Z,8.88
2022-10-17T15:32:19.374Z,9.63
2022-10-17T15:34:46.814Z,10.55
2022-10-17T15:37:21.946Z,7.68
2022-10-17T15:39:54.573Z,7.22
2022-10-17T15:42:23.501Z,7.65
2022-10-17T15:44:51.238Z,8.43
2022-10-17T15:47:31.475Z,9.35
2022-10-17T15:50:00.521Z,8.40
2022-10-17T15:52:28.122Z,10.07
2022-10-17T15:54:57.375Z,8.07
2022-10-17T15:57:29.726Z,9.88
2022-10-17T15:59:59.022Z,13.25
2022-10-17T16:02:26.852Z,11.52
2022-10-17T16:04:54.453Z,18.37
2022-10-17T16:07:21.867Z,23.38
2022-10-17T16:09:49.212Z,46.25
2022-10-17T16:12:27.181Z,36.25
2022-10-17T16:14:54.882Z,57.15
2022-10-17T16:17:22.526Z,45.20
2022-10-17T16:19:50.019Z,30.23
2022-10-17T16:22:26.801Z,34.38
2022-10-17T16:25:07.242Z,35.33
2022-10-17T16:27:35.015Z,50.15
2022-10-17T16:30:06.715Z,43.75
2022-10-17T16:32:34.320Z,78.70
2022-10-17T16:35:01.737Z,59.28
2022-10-17T16:37:29.403Z,58.05
2022-10-17T16:39:56.788Z,41.92
2022-10-17T16:42:24.233Z,43.60
2022-10-17T16:44:51.895Z,36.25
2022-10-17T16:47:19.644Z,42.58
2022-10-17T16:49:47.129Z,37.05
2022-10-17T16:52:14.759Z,37.15
2022-10-17T16:54:42.087Z,41.53
2022-10-17T16:57:09.519Z,38.40
2022-10-17T16:59:37.249Z,37.65
2022-10-17T17:02:04.734Z,41.83
2022-10-17T17:04:32.359Z,35.65
2022-10-17T17:07:00.464Z,40.78
2022-10-17T17:09:27.988Z,38.28
2022-10-17T17:11:55.667Z,28.83
2022-10-17T17:14:23.848Z,28.83
2022-10-17T17:16:52.185Z,33.70
2022-10-17T17:19:20.908Z,29.52
2022-10-17T17:21:51.245Z,27.95
2022-10-17T17:24:23.997Z,30.88
2022-10-17T17:26:53.836Z,30.37
2022-10-17T17:29:22.938Z,36.90
2022-10-17T17:31:50.677Z,25.50
2022-10-17T17:34:18.634Z,25.15
2022-10-17T17:36:46.494Z,24.42
2022-10-17T17:39:15.697Z,25.17
2022-10-17T17:41:44.428Z,22.17
2022-10-17T17:44:16.409Z,27.45
2022-10-17T17:46:45.696Z,23.02
2022-10-17T17:49:13.711Z,22.42
2022-10-17T17:51:42.191Z,21.27
2022-10-17T17:54:13.127Z,28.38
2022-10-17T17:56:40.778Z,30.58
2022-10-17T17:59:10.840Z,35.42
2022-10-17T18:01:39.390Z,35.97
2022-10-17T18:04:08.845Z,33.08
2022-10-17T18:06:37.834Z,33.80
2022-10-17T18:09:06.354Z,36.35
2022-10-17T18:11:34.411Z,36.53
2022-10-17T18:14:08.081Z,36.97
2022-10-17T18:16:37.513Z,38.67
2022-10-17T18:19:07.365Z,32.10
2022-10-17T18:21:36.397Z,21.98
2022-10-17T18:24:07.160Z,22.30
2022-10-17T18:26:35.438Z,30.92
2022-10-17T18:29:04.034Z,30.48
2022-10-17T18:31:36.287Z,42.90
2022-10-17T18:34:05.205Z,45.47
2022-10-17T18:36:34.614Z,44.55
2022-10-17T18:39:02.557Z,40.50
2022-10-17T18:41:30.700Z,45.35
2022-10-17T18:43:58.911Z,44.70
2022-10-17T18:46:32.148Z,43.03
2022-10-17T18:49:00.420Z,39.15
2022-10-17T18:51:28.683Z,37.28
2022-10-17T18:53:59.027Z,38.38
2022-10-17T18:56:27.385Z,43.83
2022-10-17T18:58:55.689Z,42.20
2022-10-17T19:01:27.528Z,43.63
2022-10-17T19:03:58.373Z,46.88
2022-10-17T19:06:29.238Z,45.00
2022-10-17T19:08:57.325Z,44.83
2022-10-17T19:11:26.180Z,44.10
2022-10-17T19:13:55.933Z,42.17
2022-10-17T19:16:27.708Z,54.40
2022-10-17T19:19:00.582Z,44.88
2022-10-17T19:21:28.611Z,42.25
2022-10-17T19:23:58.830Z,25.85
2022-10-17T19:26:28.090Z,25.62
2022-10-17T19:28:56.083Z,37.83
2022-10-17T19:31:27.041Z,64.93
2022-10-17T19:33:55.769Z,69.80
2022-10-17T19:36:30.619Z,58.95
2022-10-17T19:39:03.687Z,59.80
2022-10-17T19:41:31.937Z,54.47
2022-10-17T19:44:00.564Z,53.90
2022-10-17T19:46:29.715Z,48.67
2022-10-17T19:48:57.767Z,44.20
2022-10-17T19:51:26.338Z,30.08
2022-10-17T19:53:56.088Z,20.37
2022-10-17T19:56:25.455Z,22.27
2022-10-17T19:58:54.431Z,22.23
2022-10-17T20:01:25.268Z,19.35
2022-10-17T20:03:54.474Z,22.87
2022-10-17T20:06:22.539Z,22.77
2022-10-17T20:08:50.388Z,23.35
2022-10-17T20:11:21.325Z,26.77
2022-10-17T20:13:49.600Z,32.15
2022-10-17T20:16:21.425Z,32.40
2022-10-17T20:18:51.022Z,33.63
2022-10-17T20:21:27.276Z,28.23
2022-10-17T20:23:54.978Z,40.35
2022-10-17T20:26:33.656Z,37.58
2022-10-17T20:29:11.030Z,43.40
2022-10-17T20:31:39.444Z,42.25
2022-10-17T20:34:07.367Z,41.35
2022-10-17T20:36:37.543Z,43.97
2022-10-17T20:39:06.116Z,48.50
2022-10-17T20:41:33.781Z,46.17
2022-10-17T20:44:01.156Z,42.03
2022-10-17T20:46:37.200Z,40.42
2022-10-17T20:49:06.592Z,42.97
2022-10-17T20:51:34.942Z,41.65
2022-10-17T20:54:03.084Z,44.65
2022-10-17T20:56:32.312Z,43.35
2022-10-17T20:59:05.528Z,43.53
2022-10-17T21:01:34.590Z,42.85
2022-10-17T21:04:21.388Z,45.35
2022-10-17T21:06:52.091Z,47.28
2022-10-17T21:09:20.232Z,44.30
2022-10-17T21:11:48.535Z,31.50
2022-10-17T21:14:16.770Z,34.47
2022-10-17T21:16:44.191Z,36.13
2022-10-17T21:19:12.312Z,39.38
2022-10-17T21:21:42.675Z,31.60
2022-10-17T21:24:13.632Z,37.00
2022-10-17T21:26:42.330Z,33.03
2022-10-17T21:29:10.328Z,31.73
2022-10-17T21:31:38.876Z,27.37
2022-10-17T21:34:21.254Z,32.65
2022-10-17T21:36:48.930Z,26.12
2022-10-17T21:39:16.964Z,31.30
2022-10-17T21:41:44.450Z,26.75
2022-10-17T21:44:19.856Z,32.22
2022-10-17T21:46:48.006Z,30.10
2022-10-17T21:49:18.251Z,29.63
2022-10-17T21:51:47.467Z,29.58
2022-10-17T21:54:16.159Z,26.45
2022-10-17T21:56:43.570Z,25.58
2022-10-17T21:59:10.978Z,25.35
2022-10-17T22:01:40.685Z,26.95
2022-10-17T22:04:11.482Z,26.87
2022-10-17T22:06:41.007Z,28.70
2022-10-17T22:09:13.261Z,30.55
2022-10-17T22:11:41.118Z,33.75
2022-10-17T22:14:13.135Z,33.50
2022-10-17T22:16:40.902Z,35.33
2022-10-17T22:19:08.933Z,35.88
2022-10-17T22:21:37.582Z,32.22
2022-10-17T22:24:07.141Z,26.85
2022-10-17T22:26:36.215Z,23.48
2022-10-17T22:29:05.551Z,21.80
2022-10-17T22:31:33.308Z,26.37
2022-10-17T22:34:00.665Z,26.42
2022-10-17T22:36:28.540Z,22.33
2022-10-17T22:38:55.914Z,27.08
2022-10-17T22:41:23.239Z,26.52
2022-10-17T22:43:50.855Z,26.25
2022-10-17T22:46:18.400Z,28.55
2022-10-17T22:48:45.733Z,22.50
2022-10-17T22:51:13.723Z,25.02
2022-10-17T22:53:41.342Z,28.42
2022-10-17T22:56:14.375Z,23.10
2022-10-17T22:58:42.060Z,27.23
2022-10-17T23:01:13.031Z,28.27
2022-10-17T23:03:40.537Z,26.55
2022-10-17T23:06:08.159Z,28.15
2022-10-17T23:08:35.572Z,22.87
2022-10-17T23:11:02.990Z,23.08
2022-10-17T23:13:30.589Z,27.15
2022-10-17T23:15:57.957Z,25.55
2022-10-17T23:18:26.299Z,27.17
2022-10-17T23:20:54.568Z,26.90
2022-10-17T23:23:22.230Z,31.20
2022-10-17T23:25:50.483Z,30.20
2022-10-17T23:28:18.281Z,28.87
2022-10-17T23:30:45.788Z,27.85
2022-10-17T23:33:13.927Z,24.40
2022-10-17T23:35:42.069Z,24.92
2022-10-17T23:38:09.888Z,23.12
2022-10-17T23:40:37.343Z,19.77
2022-10-17T23:43:05.426Z,21.67
2022-10-17T23:45:36.117Z,21.50
2022-10-17T23:48:05.428Z,19.40
2022-10-17T23:50:33.063Z,16.98
2022-10-17T23:53:00.466Z,17.67
2022-10-17T23:55:27.818Z,19.10
2022-10-17T23:57:55.449Z,18.75
